createdAt,value
2022-09-12T00:01:16.439Z,99871.70
2022-09-12T00:03:44.216Z,99873.77
2022-09-12T00:06:22.638Z,99875.22
2022-09-12T00:08:53.650Z,99871.60
2022-09-12T00:11:21.674Z,99874.41
2022-09-12T00:13:49.242Z,99866.66
2022-09-12T00:16:22.772Z,99868.13
2022-09-12T00:18:51.398Z,99865.37
2022-09-12T00:21:20.097Z,99865.70
2022-09-12T00:23:48.441Z,99865.52
2022-09-12T00:26:17.440Z,99865.71
2022-09-12T00:28:45.939Z,99866.07
2022-09-12T00:31:17.554Z,99865.09
2022-09-12T00:33:45.914Z,99866.03
2022-09-12T00:36:24.445Z,99865.77
2022-09-12T00:38:53.445Z,99868.58
2022-09-12T00:41:30.108Z,99865.12
2022-09-12T00:44:04.326Z,99857.52
2022-09-12T00:46:45.991Z,99857.12
2022-09-12T00:49:32.204Z,99859.96
2022-09-12T00:52:07.260Z,99857.58
2022-09-12T00:54:41.034Z,99857.12
2022-09-12T00:57:11.673Z,99853.73
2022-09-12T00:59:46.629Z,99856.69
2022-09-12T01:02:15.019Z,99858.11
2022-09-12T01:04:44.412Z,99856.44
2022-09-12T01:07:15.324Z,99855.65
2022-09-12T01:09:45.226Z,99860.92
2022-09-12T01:12:15.589Z,99858.55
2022-09-12T01:14:43.074Z,99860.66
2022-09-12T01:17:15.190Z,99858.81
2022-09-12T01:20:16.603Z,99856.55
2022-09-12T01:23:13.367Z,99855.78
2022-09-12T01:26:12.285Z,99854.23
2022-09-12T01:29:09.844Z,99851.44
2022-09-12T01:32:00.028Z,99850.21
2022-09-12T01:34:54.187Z,99847.60
2022-09-12T01:37:54.342Z,99847.89
2022-09-12T01:40:35.035Z,99851.20
2022-09-12T01:43:21.293Z,99852.92
2022-09-12T01:46:17.723Z,99851.88
2022-09-12T01:49:11.176Z,99860.48
2022-09-12T01:51:44.971Z,99861.53
2022-09-12T01:54:37.126Z,99863.85
2022-09-12T01:57:13.796Z,99864.75
2022-09-12T01:59:47.568Z,99868.40
2022-09-12T02:02:33.457Z,99871.05
2022-09-12T02:05:32.877Z,99870.21
2022-09-12T02:08:08.094Z,99865.52
2022-09-12T02:10:47.121Z,99866.92
2022-09-12T02:13:31.574Z,99872.53
2022-09-12T02:16:05.923Z,99871.05
2022-09-12T02:18:35.062Z,99874.02
2022-09-12T02:21:05.847Z,99874.93
2022-09-12T02:23:38.426Z,99873.70
2022-09-12T02:26:18.821Z,99874.77
2022-09-12T02:28:46.839Z,99876.20
2022-09-12T02:31:40.366Z,99879.53
2022-09-12T02:34:28.779Z,99881.63
2022-09-12T02:37:28.190Z,99879.54
2022-09-12T02:39:57.312Z,99882.60
2022-09-12T02:42:25.507Z,99880.66
2022-09-12T02:44:55.392Z,99883.93
2022-09-12T02:47:42.278Z,99882.05
2022-09-12T02:50:10.530Z,99878.92
2022-09-12T02:52:39.806Z,99878.63
2022-09-12T02:55:10.967Z,99881.08
2022-09-12T02:57:38.433Z,99879.88
2022-09-12T03:00:07.589Z,99885.78
2022-09-12T03:02:43.278Z,99884.02
2022-09-12T03:05:24.852Z,99883.45
2022-09-12T03:08:24.280Z,99884.32
2022-09-12T03:11:15.877Z,99885.77
2022-09-12T03:14:02.382Z,99882.71
2022-09-12T03:17:01.770Z,99886.90
2022-09-12T03:19:50.047Z,99888.27
2022-09-12T03:22:31.303Z,99888.95
2022-09-12T03:25:18.452Z,99891.01
2022-09-12T03:28:12.092Z,99895.33
2022-09-12T03:30:42.717Z,99894.15
2022-09-12T03:33:15.691Z,99896.48
2022-09-12T03:35:43.886Z,99896.83
2022-09-12T03:38:11.295Z,99901.10
2022-09-12T03:40:39.510Z,99903.68
2022-09-12T03:43:08.655Z,99907.48
2022-09-12T03:45:37.059Z,99907.70
2022-09-12T03:48:06.198Z,99911.34
2022-09-12T03:50:33.940Z,99916.41
2022-09-12T03:53:02.663Z,99915.42
2022-09-12T03:55:30.909Z,99917.05
2022-09-12T03:57:58.366Z,99914.77
2022-09-12T04:00:25.874Z,99917.39
2022-09-12T04:02:55.734Z,99918.80
2022-09-12T04:05:24.925Z,99917.77
2022-09-12T04:07:52.612Z,99920.75
2022-09-12T04:10:20.370Z,99919.41
2022-09-12T04:12:47.803Z,99927.27
2022-09-12T04:15:15.374Z,99931.30
2022-09-12T04:17:42.843Z,99927.15
2022-09-12T04:20:10.782Z,99930.98
2022-09-12T04:22:38.373Z,99934.62
2022-09-12T04:25:06.956Z,99936.00
2022-09-12T04:27:34.636Z,99939.64
2022-09-12T04:30:02.676Z,99939.12
2022-09-12T04:32:31.230Z,99941.38
2022-09-12T04:34:58.724Z,99941.48
2022-09-12T04:37:26.263Z,99939.89
2022-09-12T04:39:57.728Z,99940.73
2022-09-12T04:42:25.364Z,99943.33
2022-09-12T04:44:52.785Z,99945.56
2022-09-12T04:47:20.375Z,99946.95
2022-09-12T04:49:51.243Z,99950.90
2022-09-12T04:52:18.733Z,99951.02
2022-09-12T04:54:46.176Z,99952.99
2022-09-12T04:57:13.778Z,99951.05
2022-09-12T04:59:41.254Z,99951.90
2022-09-12T05:02:08.719Z,99953.80
2022-09-12T05:04:36.392Z,99954.49
2022-09-12T05:07:04.136Z,99954.69
2022-09-12T05:09:32.180Z,99960.38
2022-09-12T05:12:04.624Z,99956.68
2022-09-12T05:14:34.172Z,99961.08
2022-09-12T05:17:02.857Z,99963.26
2022-09-12T05:19:31.502Z,99962.45
2022-09-12T05:21:59.506Z,99967.42
2022-09-12T05:24:27.127Z,99966.55
2022-09-12T05:26:54.741Z,99967.08
2022-09-12T05:29:22.263Z,99962.93
2022-09-12T05:31:51.972Z,99959.63
2022-09-12T05:34:20.968Z,99956.17
2022-09-12T05:36:49.074Z,99954.35
2022-09-12T05:39:16.731Z,99957.77
2022-09-12T05:41:54.308Z,99953.98
2022-09-12T05:44:21.888Z,99955.57
2022-09-12T05:46:51.334Z,99957.48
2022-09-12T05:49:19.066Z,99951.45
2022-09-12T05:51:46.591Z,99951.59
2022-09-12T05:54:19.407Z,99950.28
2022-09-12T05:56:48.349Z,99949.35
2022-09-12T05:59:19.182Z,99950.70
2022-09-12T06:01:47.320Z,99956.19
2022-09-12T06:04:17.641Z,99958.02
2022-09-12T06:06:46.605Z,99956.91
2022-09-12T06:09:16.469Z,99962.41
2022-09-12T06:11:48.638Z,99967.85
2022-09-12T06:14:22.299Z,99968.11
2022-09-12T06:16:50.608Z,99969.02
2022-09-12T06:19:23.683Z,99967.45
2022-09-12T06:21:52.823Z,99963.10
2022-09-12T06:24:21.517Z,99963.86
2022-09-12T06:26:52.786Z,99961.73
2022-09-12T06:29:21.087Z,99961.48
2022-09-12T06:31:48.630Z,99965.15
2022-09-12T06:34:17.194Z,99965.70
2022-09-12T06:36:49.986Z,99970.52
2022-09-12T06:39:20.479Z,99972.98
2022-09-12T06:41:50.106Z,99968.92
2022-09-12T06:44:22.632Z,99966.04
2022-09-12T06:46:50.800Z,99970.34
2022-09-12T06:49:18.709Z,99972.35
2022-09-12T06:51:53.997Z,99971.89
2022-09-12T06:54:27.228Z,99969.27
2022-09-12T06:56:59.590Z,99973.08
2022-09-12T06:59:27.762Z,99973.54
2022-09-12T07:01:56.555Z,99971.13
2022-09-12T07:04:24.436Z,99968.07
2022-09-12T07:06:52.323Z,99971.27
2022-09-12T07:09:20.542Z,99972.80
2022-09-12T07:11:48.778Z,99970.53
2022-09-12T07:14:17.181Z,99971.14
2022-09-12T07:16:45.316Z,99974.94
2022-09-12T07:19:13.393Z,99977.44
2022-09-12T07:21:41.819Z,99983.08
2022-09-12T07:24:11.397Z,99980.62
2022-09-12T07:26:42.443Z,99983.59
2022-09-12T07:29:36.005Z,99986.27
2022-09-12T07:32:06.624Z,99988.60
2022-09-12T07:34:35.205Z,99988.57
2022-09-12T07:37:03.299Z,99997.23
2022-09-12T07:39:30.835Z,99994.67
2022-09-12T07:41:58.639Z,99995.46
2022-09-12T07:44:27.416Z,99996.39
2022-09-12T07:46:55.223Z,99997.20
2022-09-12T07:49:28.993Z,99999.02
2022-09-12T07:51:57.421Z,99998.44
2022-09-12T07:54:25.620Z,100000.38
2022-09-12T07:56:57.354Z,100003.23
2022-09-12T07:59:50.803Z,99999.16
2022-09-12T08:02:17.138Z,99997.55
2022-09-12T08:04:45.464Z,99994.73
2022-09-12T08:07:13.066Z,100000.77
2022-09-12T08:09:40.931Z,100002.18
2022-09-12T08:12:08.562Z,100002.48
2022-09-12T08:14:36.286Z,99997.26
2022-09-12T08:17:03.823Z,100002.31
2022-09-12T08:19:31.746Z,100002.42
2022-09-12T08:21:59.279Z,100000.80
2022-09-12T08:24:27.875Z,100005.01
2022-09-12T08:26:55.457Z,100004.06
2022-09-12T08:29:22.965Z,100005.31
2022-09-12T08:31:55.176Z,100009.64
2022-09-12T08:34:26.438Z,100013.97
2022-09-12T08:36:54.678Z,100012.25
2022-09-12T08:39:22.536Z,100016.70
2022-09-12T08:42:01.450Z,100011.22
2022-09-12T08:44:45.315Z,100015.27
2022-09-12T08:47:32.900Z,100013.66
2022-09-12T08:50:04.514Z,100007.55
2022-09-12T08:53:04.327Z,100005.35
2022-09-12T08:55:42.842Z,100007.52
2022-09-12T08:58:22.689Z,100007.45
2022-09-12T09:01:32.777Z,100011.38
2022-09-12T09:04:17.474Z,100017.10
2022-09-12T09:07:17.331Z,100015.65
2022-09-12T09:10:01.426Z,100022.39
2022-09-12T09:12:36.555Z,100025.22
2022-09-12T09:15:26.460Z,100026.70
2022-09-12T09:18:06.534Z,100024.15
2022-09-12T09:20:55.640Z,100025.32
2022-09-12T09:23:41.821Z,100023.84
2022-09-12T09:26:15.921Z,100028.48
2022-09-12T09:28:55.873Z,100029.63
2022-09-12T09:31:26.824Z,100026.77
2022-09-12T09:33:57.544Z,100024.95
2022-09-12T09:36:47.109Z,100017.85
2022-09-12T09:39:23.116Z,100020.92
2022-09-12T09:42:17.150Z,100018.91
2022-09-12T09:44:48.366Z,100023.23
2022-09-12T09:47:18.459Z,100020.09
2022-09-12T09:49:47.201Z,100014.32
2022-09-12T09:52:17.817Z,100014.05
2022-09-12T09:55:01.851Z,100012.36
2022-09-12T09:57:35.445Z,100013.46
2022-09-12T10:00:18.934Z,100017.09
2022-09-12T10:03:04.826Z,100019.63
2022-09-12T10:05:35.783Z,100013.76
2022-09-12T10:08:06.981Z,100020.92
2022-09-12T10:10:34.461Z,100023.52
2022-09-12T10:13:34.825Z,100023.08
2022-09-12T10:16:06.485Z,100025.59
2022-09-12T10:18:43.476Z,100028.48
2022-09-12T10:21:22.073Z,100027.56
2022-09-12T10:24:18.338Z,100032.41
2022-09-12T10:26:56.768Z,100034.98
2022-09-12T10:29:32.473Z,100031.30
2022-09-12T10:32:06.869Z,100035.33
2022-09-12T10:34:43.015Z,100035.31
2022-09-12T10:37:31.907Z,100034.21
2022-09-12T10:40:02.747Z,100032.19
2022-09-12T10:42:46.212Z,100038.61
2022-09-12T10:45:19.636Z,100041.03
2022-09-12T10:47:48.292Z,100039.50
2022-09-12T10:50:27.153Z,100040.02
2022-09-12T10:53:12.332Z,100045.27
2022-09-12T10:55:46.941Z,100045.96
2022-09-12T10:58:26.713Z,100047.00
2022-09-12T11:01:10.063Z,100048.22
2022-09-12T11:03:53.856Z,100049.05
2022-09-12T11:06:34.782Z,100047.14
2022-09-12T11:09:36.062Z,100051.11
2022-09-12T11:12:30.294Z,100050.13
2022-09-12T11:15:17.494Z,100049.47
2022-09-12T11:18:01.134Z,100048.39
2022-09-12T11:20:44.926Z,100048.51
2022-09-12T11:23:46.785Z,100045.11
2022-09-12T11:26:27.373Z,100046.02
2022-09-12T11:29:14.340Z,100043.27
2022-09-12T11:31:50.968Z,100050.20
2022-09-12T11:34:37.521Z,100048.68
2022-09-12T11:37:37.591Z,100048.36
2022-09-12T11:40:33.566Z,100043.54
2022-09-12T11:43:20.190Z,100041.49
2022-09-12T11:45:50.136Z,100035.86
2022-09-12T11:48:55.443Z,100038.64
2022-09-12T11:51:37.608Z,100037.77
2022-09-12T11:54:22.834Z,100037.50
2022-09-12T11:57:02.271Z,100032.18
2022-09-12T11:59:43.058Z,100033.23
2022-09-12T12:02:22.484Z,100036.10
2022-09-12T12:05:22.162Z,100034.78
2022-09-12T12:07:56.194Z,100033.17
2022-09-12T12:10:40.344Z,100034.37
2022-09-12T12:13:23.755Z,100028.77
2022-09-12T12:15:56.656Z,100029.71
2022-09-12T12:18:27.290Z,100041.88
2022-09-12T12:21:14.664Z,100038.18
2022-09-12T12:24:04.868Z,100034.73
2022-09-12T12:26:38.461Z,100038.23
2022-09-12T12:29:18.361Z,100041.90
2022-09-12T12:32:04.725Z,100043.72
2022-09-12T12:34:35.084Z,100041.50
2022-09-12T12:37:32.573Z,100041.55
2022-09-12T12:40:25.475Z,100049.64
2022-09-12T12:43:04.665Z,100044.17
2022-09-12T12:45:34.934Z,100044.39
2022-09-12T12:48:11.730Z,100039.66
2022-09-12T12:50:39.289Z,100033.17
2022-09-12T12:53:19.128Z,100035.10
2022-09-12T12:55:51.691Z,100040.23
2022-09-12T12:58:33.127Z,100034.45
2022-09-12T13:01:09.840Z,100035.20
2022-09-12T13:03:40.981Z,100042.21
2022-09-12T13:06:23.132Z,100043.89
2022-09-12T13:09:09.269Z,100043.73
2022-09-12T13:11:39.382Z,100047.41
2022-09-12T13:14:28.389Z,100045.33
2022-09-12T13:17:00.405Z,100047.97
2022-09-12T13:19:33.379Z,100050.00
2022-09-12T13:22:07.423Z,100050.30
2022-09-12T13:24:55.484Z,100053.86
2022-09-12T13:27:25.675Z,100055.32
2022-09-12T13:30:15.058Z,100054.91
2022-09-12T13:32:43.955Z,100057.25
2022-09-12T13:35:22.111Z,100056.95
2022-09-12T13:38:04.534Z,100056.55
2022-09-12T13:40:47.121Z,100063.17
2022-09-12T13:43:17.759Z,100060.92
2022-09-12T13:45:47.363Z,100064.39
2022-09-12T13:48:25.384Z,100058.82
2022-09-12T13:51:00.342Z,100057.08
2022-09-12T13:53:32.501Z,100058.83
2022-09-12T13:56:00.183Z,100057.87
2022-09-12T13:58:31.639Z,100055.61
2022-09-12T14:01:10.592Z,100055.82
2022-09-12T14:03:58.945Z,100049.70
2022-09-12T14:06:27.558Z,100049.81
2022-09-12T14:09:01.576Z,100049.27
2022-09-12T14:11:30.958Z,100050.90
2022-09-12T14:13:59.261Z,100051.77
2022-09-12T14:16:29.596Z,100048.51
2022-09-12T14:18:59.895Z,100044.92
2022-09-12T14:21:34.432Z,100042.34
2022-09-12T14:24:07.002Z,100040.17
2022-09-12T14:26:37.645Z,100042.68
2022-09-12T14:29:09.960Z,100041.44
2022-09-12T14:31:39.463Z,100047.50
2022-09-12T14:34:16.471Z,100052.52
2022-09-12T14:36:56.465Z,100051.73
2022-09-12T14:39:38.079Z,100050.83
2022-09-12T14:42:16.564Z,100050.27
2022-09-12T14:45:08.862Z,100051.14
2022-09-12T14:47:42.027Z,100061.81
2022-09-12T14:50:27.665Z,100061.41
2022-09-12T14:53:17.254Z,100054.52
2022-09-12T14:55:58.985Z,100054.34
2022-09-12T14:58:29.267Z,100055.96
2022-09-12T15:01:06.256Z,100059.36
2022-09-12T15:03:51.958Z,100057.05
2022-09-12T15:06:32.862Z,100060.02
2022-09-12T15:09:05.829Z,100058.23
2022-09-12T15:11:33.780Z,100057.30
2022-09-12T15:14:13.572Z,100061.70
2022-09-12T15:16:41.694Z,100062.16
2022-09-12T15:19:09.657Z,100061.38
2022-09-12T15:21:37.712Z,100069.96
2022-09-12T15:24:05.291Z,100070.69
2022-09-12T15:26:33.174Z,100069.14
2022-09-12T15:29:01.031Z,100065.39
2022-09-12T15:31:32.100Z,100066.34
2022-09-12T15:34:02.089Z,100070.33
2022-09-12T15:36:30.288Z,100073.21
2022-09-12T15:38:58.259Z,100072.10
2022-09-12T15:41:37.421Z,100074.35
2022-09-12T15:44:11.113Z,100077.21
2022-09-12T15:46:39.102Z,100075.76
2022-09-12T15:49:07.459Z,100074.78
2022-09-12T15:51:34.923Z,100076.73
2022-09-12T15:54:04.260Z,100076.41
2022-09-12T15:56:31.718Z,100073.73
2022-09-12T15:59:00.246Z,100071.71
2022-09-12T16:01:29.348Z,100070.63
2022-09-12T16:03:57.386Z,100066.42
2022-09-12T16:06:25.222Z,100067.48
2022-09-12T16:08:52.746Z,100069.42
2022-09-12T16:11:23.786Z,100070.23
2022-09-12T16:13:56.725Z,100067.24
2022-09-12T16:16:24.303Z,100068.11
2022-09-12T16:18:52.264Z,100070.58
2022-09-12T16:21:19.814Z,100070.05
2022-09-12T16:23:48.463Z,100074.27
2022-09-12T16:26:16.855Z,100073.84
2022-09-12T16:28:44.531Z,100073.23
2022-09-12T16:31:14.037Z,100073.73
2022-09-12T16:33:41.885Z,100076.30
2022-09-12T16:36:12.553Z,100076.66
2022-09-12T16:38:43.949Z,100077.94
2022-09-12T16:41:12.333Z,100079.98
2022-09-12T16:43:40.393Z,100077.39
2022-09-12T16:46:11.242Z,100076.69
2022-09-12T16:48:49.392Z,100078.25
2022-09-12T16:51:24.839Z,100078.22
2022-09-12T16:53:55.338Z,100077.58
2022-09-12T16:56:24.318Z,100074.38
2022-09-12T16:58:52.078Z,100075.41
2022-09-12T17:01:23.360Z,100079.29
2022-09-12T17:03:56.403Z,100077.20
2022-09-12T17:06:25.298Z,100082.63
2022-09-12T17:08:55.592Z,100084.65
2022-09-12T17:11:27.272Z,100085.27
2022-09-12T17:14:05.883Z,100084.00
2022-09-12T17:16:40.320Z,100082.55
2022-09-12T17:19:09.165Z,100079.90
2022-09-12T17:21:37.302Z,100080.98
2022-09-12T17:24:05.384Z,100078.52
2022-09-12T17:26:33.211Z,100084.45
2022-09-12T17:29:01.637Z,100088.53
2022-09-12T17:31:29.301Z,100090.73
2022-09-12T17:33:59.059Z,100094.57
2022-09-12T17:36:27.709Z,100095.02
2022-09-12T17:38:56.113Z,100100.68
2022-09-12T17:41:26.618Z,100101.40
2022-09-12T17:43:58.352Z,100104.66
2022-09-12T17:46:35.235Z,100105.84
2022-09-12T17:49:22.077Z,100112.58
2022-09-12T17:51:51.069Z,100113.60
2022-09-12T17:54:21.458Z,100110.29
2022-09-12T17:56:49.915Z,100112.91
2022-09-12T17:59:20.289Z,100116.31
2022-09-12T18:02:04.904Z,100118.34
2022-09-12T18:04:32.795Z,100120.04
2022-09-12T18:07:00.730Z,100120.02
2022-09-12T18:09:30.553Z,100115.46
2022-09-12T18:11:58.585Z,100120.16
2022-09-12T18:14:28.149Z,100120.06
2022-09-12T18:16:57.643Z,100118.48
2022-09-12T18:19:26.734Z,100117.23
2022-09-12T18:21:56.074Z,100119.41
2022-09-12T18:24:24.187Z,100113.05
2022-09-12T18:26:51.842Z,100111.95
2022-09-12T18:29:20.134Z,100112.42
2022-09-12T18:31:48.940Z,100110.63
2022-09-12T18:34:17.733Z,100114.79
2022-09-12T18:36:48.384Z,100115.27
2022-09-12T18:39:18.104Z,100115.68
2022-09-12T18:41:46.593Z,100116.52
2022-09-12T18:44:14.232Z,100115.70
2022-09-12T18:46:42.576Z,100115.70
2022-09-12T18:49:10.665Z,100114.95
2022-09-12T18:51:40.114Z,100115.42
2022-09-12T18:54:12.623Z,100120.40
2022-09-12T18:56:43.613Z,100124.20
2022-09-12T18:59:14.193Z,100126.33
2022-09-12T19:01:43.141Z,100126.05
2022-09-12T19:04:13.276Z,100122.43
2022-09-12T19:06:43.783Z,100120.72
2022-09-12T19:09:13.933Z,100118.77
2022-09-12T19:11:48.778Z,100124.10
2022-09-12T19:14:23.020Z,100120.88
2022-09-12T19:16:52.147Z,100119.05
2022-09-12T19:19:21.259Z,100118.30
2022-09-12T19:21:49.028Z,100119.49
2022-09-12T19:24:17.169Z,100119.31
2022-09-12T19:26:45.313Z,100116.05
2022-09-12T19:29:14.464Z,100118.35
2022-09-12T19:31:43.609Z,100120.98
2022-09-12T19:34:13.418Z,100119.42
2022-09-12T19:36:45.456Z,100119.57
2022-09-12T19:39:15.325Z,100117.07
2022-09-12T19:41:43.760Z,100113.19
2022-09-12T19:44:12.017Z,100112.09
2022-09-12T19:46:40.274Z,100113.63
2022-09-12T19:49:10.051Z,100111.73
2022-09-12T19:51:37.788Z,100113.13
2022-09-12T19:54:06.054Z,100112.05
2022-09-12T19:56:33.532Z,100107.32
2022-09-12T19:59:01.069Z,100113.35
2022-09-12T20:01:29.069Z,100109.31
2022-09-12T20:03:57.965Z,100108.90
2022-09-12T20:06:27.368Z,100109.17
2022-09-12T20:08:55.526Z,100111.05
2022-09-12T20:11:24.014Z,100114.63
2022-09-12T20:13:52.307Z,100113.20
2022-09-12T20:16:29.390Z,100114.03
2022-09-12T20:19:06.015Z,100111.87
2022-09-12T20:21:36.082Z,100108.31
2022-09-12T20:24:10.883Z,100107.88
2022-09-12T20:26:39.006Z,100107.46
2022-09-12T20:29:08.048Z,100105.96
2022-09-12T20:31:37.932Z,100106.92
2022-09-12T20:34:05.675Z,100104.27
2022-09-12T20:36:33.998Z,100102.48
2022-09-12T20:39:02.460Z,100098.80
2022-09-12T20:41:35.227Z,100102.73
2022-09-12T20:44:02.892Z,100101.12
2022-09-12T20:46:30.393Z,100105.54
2022-09-12T20:48:58.668Z,100100.06
2022-09-12T20:51:27.523Z,100101.52
2022-09-12T20:54:03.463Z,100096.21
2022-09-12T20:56:33.966Z,100094.41
2022-09-12T20:59:02.232Z,100101.48
2022-09-12T21:01:34.321Z,100100.74
2022-09-12T21:04:02.440Z,100102.27
2022-09-12T21:06:30.284Z,100101.34
2022-09-12T21:08:59.751Z,100103.34
2022-09-12T21:11:28.465Z,100101.88
2022-09-12T21:13:56.345Z,100099.30
2022-09-12T21:16:23.926Z,100094.15
2022-09-12T21:18:57.311Z,100091.44
2022-09-12T21:21:26.134Z,100094.59
2022-09-12T21:23:58.095Z,100091.70
2022-09-12T21:26:25.881Z,100090.15
2022-09-12T21:28:53.299Z,100085.68
2022-09-12T21:31:21.215Z,100082.86
2022-09-12T21:33:48.988Z,100074.42
2022-09-12T21:36:16.870Z,100069.42
2022-09-12T21:38:44.330Z,100060.30
2022-09-12T21:41:15.387Z,100061.52
2022-09-12T21:43:43.896Z,100061.71
2022-09-12T21:46:12.055Z,100060.39
2022-09-12T21:48:39.697Z,100060.14
2022-09-12T21:51:07.198Z,100062.73
2022-09-12T21:53:34.801Z,100067.95
2022-09-12T21:56:08.117Z,100068.91
2022-09-12T21:58:36.912Z,100073.08
2022-09-12T22:01:06.084Z,100076.95
2022-09-12T22:03:33.827Z,100080.11
2022-09-12T22:06:03.914Z,100078.54
2022-09-12T22:08:33.452Z,100082.87
2022-09-12T22:11:04.453Z,100085.42
2022-09-12T22:13:32.066Z,100083.66
2022-09-12T22:16:02.822Z,100083.67
2022-09-12T22:18:37.572Z,100081.09
2022-09-12T22:21:14.533Z,100079.56
2022-09-12T22:23:58.098Z,100074.89
2022-09-12T22:26:27.268Z,100072.66
2022-09-12T22:28:54.869Z,100069.23
2022-09-12T22:31:23.159Z,100072.89
2022-09-12T22:33:51.492Z,100073.12
2022-09-12T22:36:19.239Z,100069.92
2022-09-12T22:38:46.669Z,100074.51
2022-09-12T22:41:14.654Z,100070.92
2022-09-12T22:43:42.087Z,100062.56
2022-09-12T22:46:12.634Z,100056.55
2022-09-12T22:48:41.095Z,100052.92
2022-09-12T22:51:09.143Z,100055.21
2022-09-12T22:53:37.294Z,100053.33
2022-09-12T22:56:05.391Z,100059.27
2022-09-12T22:58:36.693Z,100059.53
2022-09-12T23:01:06.376Z,100058.73
2022-09-12T23:03:35.239Z,100062.96
2022-09-12T23:06:04.796Z,100059.92
2022-09-12T23:08:36.354Z,100060.84
2022-09-12T23:11:10.492Z,100056.05
2022-09-12T23:13:41.195Z,100059.88
2022-09-12T23:16:22.828Z,100059.52
2022-09-12T23:18:51.249Z,100061.94
2022-09-12T23:21:20.948Z,100055.70
2022-09-12T23:23:50.143Z,100053.10
2022-09-12T23:26:23.306Z,100052.59
2022-09-12T23:28:53.514Z,100050.73
2022-09-12T23:31:24.095Z,100049.75
2022-09-12T23:33:56.001Z,100048.95
2022-09-12T23:36:25.543Z,100049.02
2022-09-12T23:38:54.358Z,100046.63
2022-09-12T23:41:22.867Z,100043.17
2022-09-12T23:43:50.397Z,100041.84
2022-09-12T23:46:19.462Z,100043.79
2022-09-12T23:48:47.552Z,100039.49
2022-09-12T23:51:16.154Z,100034.17
2022-09-12T23:53:43.696Z,100029.73
2022-09-12T23:56:11.238Z,100029.63
2022-09-12T23:58:38.697Z,100030.03
